sensor_id;sensor_type;location;lat;lon;timestamp;P1;durP1;ratioP1;P2;durP2;ratioP2
2712;SDS011;1366;47.988;7.856;2022-12-10T05:02:05;26.10;;;18.90;;
2712;SDS011;1366;47.988;7.856;2022-12-10T05:04:31;28.13;;;21.00;;
2712;SDS011;1366;47.988;7.856;2022-12-10T05:06:57;25.23;;;19.37;;
2712;SDS011;1366;47.988;7.856;2022-12-10T05:09:23;25.67;;;20.40;;
2712;SDS011;1366;47.988;7.856;2022-12-10T05:11:49;20.67;;;18.40;;
2712;SDS011;1366;47.988;7.856;2022-12-10T05:14:15;21.93;;;17.87;;
2712;SDS011;1366;47.988;7.856;2022-12-10T05:16:41;26.53;;;20.17;;
2712;SDS011;1366;47.988;7.856;2022-12-10T05:19:08;26.43;;;21.07;;
2712;SDS011;1366;47.988;7.856;2022-12-10T05:21:34;24.23;;;18.63;;
2712;SDS011;1366;47.988;7.856;2022-12-10T05:24:19;23.00;;;19.20;;
2712;SDS011;1366;47.988;7.856;2022-12-10T05:26:45;24.30;;;18.17;;
2712;SDS011;1366;47.988;7.856;2022-12-10T05:29:15;26.80;;;19.50;;
2712;SDS011;1366;47.988;7.856;2022-12-10T05:31:41;22.97;;;18.33;;
2712;SDS011;1366;47.988;7.856;2022-12-10T05:34:08;21.47;;;18.07;;
2712;SDS011;1366;47.988;7.856;2022-12-10T05:36:35;23.93;;;18.87;;
2712;SDS011;1366;47.988;7.856;2022-12-10T05:39:02;23.57;;;18.07;;
2712;SDS011;1366;47.988;7.856;2022-12-10T05:41:29;21.00;;;18.80;;
2712;SDS011;1366;47.988;7.856;2022-12-10T05:43:56;26.23;;;19.63;;
2712;SDS011;1366;47.988;7.856;2022-12-10T05:46:24;26.03;;;18.73;;
2712;SDS011;1366;47.988;7.856;2022-12-10T05:48:50;25.10;;;19.40;;
2712;SDS011;1366;47.988;7.856;2022-12-10T05:51:18;27.80;;;19.30;;
2712;SDS011;1366;47.988;7.856;2022-12-10T05:53:44;24.87;;;18.90;;
2712;SDS011;1366;47.988;7.856;2022-12-10T05:56:11;24.17;;;20.30;;
2712;SDS011;1366;47.988;7.856;2022-12-10T05:58:39;26.63;;;20.30;;
2712;SDS011;1366;47.988;7.856;2022-12-10T06:01:09;23.73;;;19.60;;
2712;SDS011;1366;47.988;7.856;2022-12-10T06:03:36;25.20;;;19.53;;
2712;SDS011;1366;47.988;7.856;2022-12-10T06:06:02;26.43;;;19.00;;
2712;SDS011;1366;47.988;7.856;2022-12-10T06:08:28;22.40;;;18.50;;
2712;SDS011;1366;47.988;7.856;2022-12-10T06:10:54;25.67;;;19.57;;
2712;SDS011;1366;47.988;7.856;2022-12-10T06:13:22;26.10;;;18.63;;
2712;SDS011;1366;47.988;7.856;2022-12-10T06:15:48;25.93;;;19.37;;
2712;SDS011;1366;47.988;7.856;2022-12-10T06:18:14;26.53;;;19.00;;
2712;SDS011;1366;47.988;7.856;2022-12-10T06:20:40;24.33;;;18.63;;
2712;SDS011;1366;47.988;7.856;2022-12-10T06:23:07;24.43;;;19.23;;
2712;SDS011;1366;47.988;7.856;2022-12-10T06:25:33;26.33;;;18.70;;
2712;SDS011;1366;47.988;7.856;2022-12-10T06:27:59;27.37;;;19.33;;
2712;SDS011;1366;47.988;7.856;2022-12-10T06:30:25;26.63;;;18.90;;
2712;SDS011;1366;47.988;7.856;2022-12-10T06:32:51;22.20;;;18.70;;
2712;SDS011;1366;47.988;7.856;2022-12-10T06:35:17;25.47;;;19.77;;
2712;SDS011;1366;47.988;7.856;2022-12-10T06:37:43;26.00;;;19.30;;
2712;SDS011;1366;47.988;7.856;2022-12-10T06:40:09;24.57;;;18.73;;
2712;SDS011;1366;47.988;7.856;2022-12-10T06:42:36;24.33;;;19.20;;
2712;SDS011;1366;47.988;7.856;2022-12-10T06:45:02;26.70;;;19.80;;
2712;SDS011;1366;47.988;7.856;2022-12-10T06:47:28;28.80;;;19.17;;
2712;SDS011;1366;47.988;7.856;2022-12-10T06:49:54;24.20;;;17.20;;
2712;SDS011;1366;47.988;7.856;2022-12-10T06:52:20;28.07;;;19.10;;
2712;SDS011;1366;47.988;7.856;2022-12-10T06:54:46;26.10;;;18.53;;
2712;SDS011;1366;47.988;7.856;2022-12-10T06:57:13;25.07;;;19.00;;
2712;SDS011;1366;47.988;7.856;2022-12-10T06:59:39;21.90;;;17.03;;
2712;SDS011;1366;47.988;7.856;2022-12-10T07:02:05;22.20;;;17.33;;
2712;SDS011;1366;47.988;7.856;2022-12-10T07:04:31;24.67;;;18.30;;
2712;SDS011;1366;47.988;7.856;2022-12-10T07:06:57;22.70;;;16.87;;
2712;SDS011;1366;47.988;7.856;2022-12-10T07:09:23;20.47;;;16.07;;
2712;SDS011;1366;47.988;7.856;2022-12-10T07:11:49;26.33;;;18.20;;
2712;SDS011;1366;47.988;7.856;2022-12-10T07:14:15;23.40;;;18.37;;
2712;SDS011;1366;47.988;7.856;2022-12-10T07:16:41;22.40;;;16.60;;
2712;SDS011;1366;47.988;7.856;2022-12-10T07:19:08;25.83;;;17.47;;
2712;SDS011;1366;47.988;7.856;2022-12-10T07:21:35;21.77;;;16.47;;
2712;SDS011;1366;47.988;7.856;2022-12-10T07:24:06;23.67;;;16.73;;
2712;SDS011;1366;47.988;7.856;2022-12-10T07:26:34;23.33;;;15.20;;
2712;SDS011;1366;47.988;7.856;2022-12-10T07:29:01;23.50;;;15.90;;
2712;SDS011;1366;47.988;7.856;2022-12-10T07:31:27;21.07;;;15.83;;
2712;SDS011;1366;47.988;7.856;2022-12-10T07:33:53;21.60;;;17.47;;
2712;SDS011;1366;47.988;7.856;2022-12-10T07:36:20;21.47;;;16.20;;
2712;SDS011;1366;47.988;7.856;2022-12-10T07:38:50;20.53;;;16.17;;
2712;SDS011;1366;47.988;7.856;2022-12-10T07:41:16;23.67;;;15.73;;
2712;SDS011;1366;47.988;7.856;2022-12-10T07:43:43;23.80;;;15.97;;
2712;SDS011;1366;47.988;7.856;2022-12-10T07:48:38;23.47;;;16.00;;
2712;SDS011;1366;47.988;7.856;2022-12-10T07:51:05;23.37;;;16.00;;
2712;SDS011;1366;47.988;7.856;2022-12-10T07:53:31;25.87;;;16.40;;
2712;SDS011;1366;47.988;7.856;2022-12-10T07:55:57;22.57;;;15.00;;
2712;SDS011;1366;47.988;7.856;2022-12-10T07:58:23;22.33;;;15.63;;
2712;SDS011;1366;47.988;7.856;2022-12-10T08:00:49;27.10;;;18.43;;
2712;SDS011;1366;47.988;7.856;2022-12-10T08:03:15;25.20;;;17.00;;
2712;SDS011;1366;47.988;7.856;2022-12-10T08:05:42;25.17;;;18.40;;
2712;SDS011;1366;47.988;7.856;2022-12-10T08:08:08;27.93;;;18.23;;
2712;SDS011;1366;47.988;7.856;2022-12-10T08:10:35;25.00;;;16.70;;
2712;SDS011;1366;47.988;7.856;2022-12-10T08:13:01;21.77;;;13.90;;
2712;SDS011;1366;47.988;7.856;2022-12-10T08:15:27;24.00;;;16.50;;
2712;SDS011;1366;47.988;7.856;2022-12-10T08:17:53;24.00;;;17.10;;
2712;SDS011;1366;47.988;7.856;2022-12-10T08:20:19;26.50;;;17.77;;
2712;SDS011;1366;47.988;7.856;2022-12-10T08:22:45;24.67;;;17.30;;
2712;SDS011;1366;47.988;7.856;2022-12-10T08:25:11;26.53;;;18.03;;
2712;SDS011;1366;47.988;7.856;2022-12-10T08:27:37;30.30;;;18.57;;
2712;SDS011;1366;47.988;7.856;2022-12-10T08:30:04;26.17;;;18.33;;
2712;SDS011;1366;47.988;7.856;2022-12-10T08:32:30;26.10;;;17.67;;
2712;SDS011;1366;47.988;7.856;2022-12-10T08:34:56;25.93;;;17.73;;
2712;SDS011;1366;47.988;7.856;2022-12-10T08:37:22;30.17;;;17.77;;
2712;SDS011;1366;47.988;7.856;2022-12-10T08:39:48;24.83;;;16.57;;
2712;SDS011;1366;47.988;7.856;2022-12-10T08:42:14;25.63;;;17.33;;
2712;SDS011;1366;47.988;7.856;2022-12-10T08:44:40;25.93;;;16.60;;
2712;SDS011;1366;47.988;7.856;2022-12-10T08:47:06;29.50;;;17.80;;
2712;SDS011;1366;47.988;7.856;2022-12-10T08:49:32;24.40;;;16.80;;
2712;SDS011;1366;47.988;7.856;2022-12-10T08:51:58;27.00;;;17.93;;
2712;SDS011;1366;47.988;7.856;2022-12-10T08:54:24;28.60;;;17.50;;
2712;SDS011;1366;47.988;7.856;2022-12-10T08:56:50;29.40;;;17.63;;
2712;SDS011;1366;47.988;7.856;2022-12-10T08:59:17;29.20;;;16.80;;
2712;SDS011;1366;47.988;7.856;2022-12-10T09:01:43;22.00;;;16.07;;
2712;SDS011;1366;47.988;7.856;2022-12-10T09:04:09;27.20;;;18.50;;
2712;SDS011;1366;47.988;7.856;2022-12-10T09:06:35;25.70;;;16.50;;
2712;SDS011;1366;47.988;7.856;2022-12-10T09:09:01;27.40;;;15.60;;
2712;SDS011;1366;47.988;7.856;2022-12-10T09:11:28;25.80;;;17.17;;
2712;SDS011;1366;47.988;7.856;2022-12-10T09:13:55;22.67;;;15.80;;
2712;SDS011;1366;47.988;7.856;2022-12-10T09:16:21;23.10;;;15.47;;
2712;SDS011;1366;47.988;7.856;2022-12-10T09:18:47;23.63;;;16.03;;
2712;SDS011;1366;47.988;7.856;2022-12-10T09:21:15;30.00;;;17.90;;
2712;SDS011;1366;47.988;7.856;2022-12-10T09:23:42;23.97;;;16.17;;
2712;SDS011;1366;47.988;7.856;2022-12-10T09:26:09;26.97;;;17.17;;
2712;SDS011;1366;47.988;7.856;2022-12-10T09:28:35;26.80;;;18.20;;
2712;SDS011;1366;47.988;7.856;2022-12-10T09:31:02;23.77;;;16.27;;
2712;SDS011;1366;47.988;7.856;2022-12-10T09:33:29;25.27;;;16.77;;
2712;SDS011;1366;47.988;7.856;2022-12-10T09:35:55;27.87;;;18.10;;
2712;SDS011;1366;47.988;7.856;2022-12-10T09:38:21;27.30;;;17.93;;
2712;SDS011;1366;47.988;7.856;2022-12-10T09:45:56;33.63;;;20.63;;
2712;SDS011;1366;47.988;7.856;2022-12-10T09:48:32;32.37;;;19.67;;
2712;SDS011;1366;47.988;7.856;2022-12-10T09:51:05;31.03;;;18.37;;
2712;SDS011;1366;47.988;7.856;2022-12-10T09:53:35;32.63;;;18.53;;
2712;SDS011;1366;47.988;7.856;2022-12-10T09:56:02;33.13;;;21.10;;
2712;SDS011;1366;47.988;7.856;2022-12-10T09:58:28;31.47;;;20.67;;
2712;SDS011;1366;47.988;7.856;2022-12-10T10:01:01;41.03;;;21.80;;
2712;SDS011;1366;47.988;7.856;2022-12-10T10:03:29;31.67;;;20.60;;
2712;SDS011;1366;47.988;7.856;2022-12-10T10:05:56;35.80;;;21.20;;
2712;SDS011;1366;47.988;7.856;2022-12-10T10:08:33;38.07;;;21.10;;
2712;SDS011;1366;47.988;7.856;2022-12-10T10:11:01;40.07;;;22.80;;
2712;SDS011;1366;47.988;7.856;2022-12-10T10:13:35;37.20;;;19.50;;
2712;SDS011;1366;47.988;7.856;2022-12-10T10:16:19;37.27;;;21.13;;
2712;SDS011;1366;47.988;7.856;2022-12-10T10:18:48;30.57;;;18.90;;
2712;SDS011;1366;47.988;7.856;2022-12-10T10:21:22;35.93;;;19.13;;
2712;SDS011;1366;47.988;7.856;2022-12-10T10:23:49;31.47;;;19.90;;
2712;SDS011;1366;47.988;7.856;2022-12-10T10:26:15;37.30;;;20.93;;
2712;SDS011;1366;47.988;7.856;2022-12-10T10:28:41;36.77;;;21.63;;
2712;SDS011;1366;47.988;7.856;2022-12-10T10:34:05;39.87;;;23.50;;
2712;SDS011;1366;47.988;7.856;2022-12-10T10:36:32;38.57;;;22.10;;
2712;SDS011;1366;47.988;7.856;2022-12-10T10:41:54;41.17;;;22.00;;
2712;SDS011;1366;47.988;7.856;2022-12-10T10:44:22;38.17;;;22.97;;
2712;SDS011;1366;47.988;7.856;2022-12-10T10:46:50;35.97;;;22.17;;
2712;SDS011;1366;47.988;7.856;2022-12-10T10:49:29;37.00;;;21.43;;
2712;SDS011;1366;47.988;7.856;2022-12-10T10:51:59;33.63;;;19.83;;
2712;SDS011;1366;47.988;7.856;2022-12-10T10:57:00;36.47;;;21.10;;
2712;SDS011;1366;47.988;7.856;2022-12-10T11:01:54;44.30;;;21.40;;
2712;SDS011;1366;47.988;7.856;2022-12-10T11:04:24;32.47;;;22.40;;
2712;SDS011;1366;47.988;7.856;2022-12-10T11:06:54;35.97;;;19.70;;
2712;SDS011;1366;47.988;7.856;2022-12-10T11:09:24;36.10;;;21.00;;
2712;SDS011;1366;47.988;7.856;2022-12-10T11:11:51;31.70;;;20.03;;
2712;SDS011;1366;47.988;7.856;2022-12-10T11:16:49;33.63;;;22.57;;
2712;SDS011;1366;47.988;7.856;2022-12-10T11:19:19;36.30;;;21.30;;
2712;SDS011;1366;47.988;7.856;2022-12-10T11:21:45;30.33;;;21.03;;
2712;SDS011;1366;47.988;7.856;2022-12-10T11:24:12;30.97;;;21.60;;
2712;SDS011;1366;47.988;7.856;2022-12-10T11:29:46;32.90;;;19.57;;
2712;SDS011;1366;47.988;7.856;2022-12-10T11:35:02;37.27;;;22.00;;
2712;SDS011;1366;47.988;7.856;2022-12-10T11:40:25;31.40;;;19.27;;
2712;SDS011;1366;47.988;7.856;2022-12-10T11:45:44;33.17;;;19.80;;
2712;SDS011;1366;47.988;7.856;2022-12-10T11:48:21;31.27;;;19.20;;
2712;SDS011;1366;47.988;7.856;2022-12-10T11:50:52;33.43;;;21.87;;
2712;SDS011;1366;47.988;7.856;2022-12-10T11:53:30;33.83;;;20.33;;
2712;SDS011;1366;47.988;7.856;2022-12-10T11:56:00;29.70;;;19.30;;
2712;SDS011;1366;47.988;7.856;2022-12-10T12:06:04;32.27;;;19.70;;
2712;SDS011;1366;47.988;7.856;2022-12-10T12:08:37;30.03;;;19.17;;
2712;SDS011;1366;47.988;7.856;2022-12-10T12:11:08;28.70;;;18.67;;
2712;SDS011;1366;47.988;7.856;2022-12-10T12:16:13;27.60;;;18.87;;
2712;SDS011;1366;47.988;7.856;2022-12-10T12:21:19;30.87;;;19.33;;
2712;SDS011;1366;47.988;7.856;2022-12-10T12:26:35;28.30;;;19.10;;
2712;SDS011;1366;47.988;7.856;2022-12-10T12:29:02;29.90;;;18.70;;
2712;SDS011;1366;47.988;7.856;2022-12-10T12:31:35;32.23;;;19.67;;
2712;SDS011;1366;47.988;7.856;2022-12-10T12:34:10;30.33;;;18.80;;
2712;SDS011;1366;47.988;7.856;2022-12-10T12:36:39;33.17;;;20.40;;
2712;SDS011;1366;47.988;7.856;2022-12-10T12:44:52;34.10;;;20.13;;
2712;SDS011;1366;47.988;7.856;2022-12-10T12:46:47;31.00;;;18.93;;
2712;SDS011;1366;47.988;7.856;2022-12-10T12:49:27;28.87;;;19.33;;
2712;SDS011;1366;47.988;7.856;2022-12-10T12:51:56;30.10;;;19.97;;
2712;SDS011;1366;47.988;7.856;2022-12-10T12:54:23;33.50;;;21.00;;
2712;SDS011;1366;47.988;7.856;2022-12-10T13:01:52;33.90;;;19.83;;
2712;SDS011;1366;47.988;7.856;2022-12-10T13:04:19;30.87;;;18.20;;
2712;SDS011;1366;47.988;7.856;2022-12-10T13:09:30;34.63;;;21.50;;
2712;SDS011;1366;47.988;7.856;2022-12-10T13:14:33;31.53;;;20.80;;
2712;SDS011;1366;47.988;7.856;2022-12-10T13:17:01;33.93;;;20.03;;
2712;SDS011;1366;47.988;7.856;2022-12-10T13:19:28;30.83;;;19.57;;
2712;SDS011;1366;47.988;7.856;2022-12-10T13:27:53;33.10;;;19.97;;
2712;SDS011;1366;47.988;7.856;2022-12-10T13:34:47;28.60;;;18.93;;
2712;SDS011;1366;47.988;7.856;2022-12-10T13:42:44;30.07;;;19.60;;
2712;SDS011;1366;47.988;7.856;2022-12-10T13:45:31;27.57;;;20.20;;
2712;SDS011;1366;47.988;7.856;2022-12-10T13:50:45;30.53;;;19.60;;
2712;SDS011;1366;47.988;7.856;2022-12-10T14:08:33;30.10;;;18.00;;
2712;SDS011;1366;47.988;7.856;2022-12-10T14:11:00;26.33;;;18.23;;
2712;SDS011;1366;47.988;7.856;2022-12-10T14:13:35;28.07;;;17.73;;
2712;SDS011;1366;47.988;7.856;2022-12-10T14:16:02;26.27;;;18.10;;
2712;SDS011;1366;47.988;7.856;2022-12-10T14:18:31;27.17;;;17.00;;
2712;SDS011;1366;47.988;7.856;2022-12-10T14:20:57;23.13;;;16.47;;
2712;SDS011;1366;47.988;7.856;2022-12-10T14:23:27;26.27;;;17.90;;
2712;SDS011;1366;47.988;7.856;2022-12-10T14:28:39;27.13;;;18.07;;
2712;SDS011;1366;47.988;7.856;2022-12-10T14:31:06;28.27;;;19.73;;
2712;SDS011;1366;47.988;7.856;2022-12-10T14:33:32;30.53;;;18.60;;
2712;SDS011;1366;47.988;7.856;2022-12-10T14:35:58;25.33;;;17.30;;
2712;SDS011;1366;47.988;7.856;2022-12-10T14:38:29;23.70;;;17.50;;
2712;SDS011;1366;47.988;7.856;2022-12-10T14:40:56;25.47;;;17.93;;
2712;SDS011;1366;47.988;7.856;2022-12-10T14:43:56;26.90;;;18.50;;
2712;SDS011;1366;47.988;7.856;2022-12-10T14:46:18;28.10;;;16.93;;
2712;SDS011;1366;47.988;7.856;2022-12-10T14:48:48;28.57;;;19.00;;
2712;SDS011;1366;47.988;7.856;2022-12-10T14:51:18;30.00;;;20.13;;
2712;SDS011;1366;47.988;7.856;2022-12-10T14:53:45;31.37;;;20.33;;
2712;SDS011;1366;47.988;7.856;2022-12-10T14:56:14;26.50;;;19.10;;
2712;SDS011;1366;47.988;7.856;2022-12-10T14:58:47;28.27;;;18.60;;
2712;SDS011;1366;47.988;7.856;2022-12-10T15:03:56;24.47;;;17.23;;
2712;SDS011;1366;47.988;7.856;2022-12-10T15:06:23;29.60;;;19.80;;
2712;SDS011;1366;47.988;7.856;2022-12-10T15:08:49;29.13;;;18.07;;
2712;SDS011;1366;47.988;7.856;2022-12-10T15:11:19;29.57;;;20.80;;
2712;SDS011;1366;47.988;7.856;2022-12-10T15:13:46;28.60;;;18.53;;
2712;SDS011;1366;47.988;7.856;2022-12-10T15:16:15;26.33;;;18.70;;
2712;SDS011;1366;47.988;7.856;2022-12-10T15:18:42;26.63;;;18.30;;
2712;SDS011;1366;47.988;7.856;2022-12-10T15:21:11;26.40;;;20.30;;
2712;SDS011;1366;47.988;7.856;2022-12-10T15:23:40;29.50;;;18.80;;
2712;SDS011;1366;47.988;7.856;2022-12-10T15:28:43;29.00;;;19.60;;
2712;SDS011;1366;47.988;7.856;2022-12-10T15:37:11;33.83;;;21.13;;
2712;SDS011;1366;47.988;7.856;2022-12-10T15:39:28;31.03;;;21.13;;
2712;SDS011;1366;47.988;7.856;2022-12-10T15:41:58;28.87;;;20.30;;
2712;SDS011;1366;47.988;7.856;2022-12-10T15:44:31;32.37;;;21.90;;
2712;SDS011;1366;47.988;7.856;2022-12-10T15:49:42;30.60;;;20.17;;
2712;SDS011;1366;47.988;7.856;2022-12-10T15:52:12;30.83;;;20.07;;
2712;SDS011;1366;47.988;7.856;2022-12-10T15:54:40;28.33;;;19.80;;
2712;SDS011;1366;47.988;7.856;2022-12-10T15:57:11;23.67;;;17.63;;
2712;SDS011;1366;47.988;7.856;2022-12-10T15:59:38;29.37;;;19.53;;
2712;SDS011;1366;47.988;7.856;2022-12-10T16:02:08;28.07;;;18.40;;
2712;SDS011;1366;47.988;7.856;2022-12-10T16:04:40;28.33;;;19.27;;
2712;SDS011;1366;47.988;7.856;2022-12-10T16:07:07;27.80;;;19.50;;
2712;SDS011;1366;47.988;7.856;2022-12-10T16:09:33;30.17;;;19.70;;
2712;SDS011;1366;47.988;7.856;2022-12-10T16:11:59;31.20;;;21.20;;
2712;SDS011;1366;47.988;7.856;2022-12-10T16:14:25;33.90;;;20.17;;
2712;SDS011;1366;47.988;7.856;2022-12-10T16:16:51;26.50;;;18.73;;
2712;SDS011;1366;47.988;7.856;2022-12-10T16:19:17;28.40;;;18.77;;
2712;SDS011;1366;47.988;7.856;2022-12-10T16:21:43;32.57;;;19.40;;
2712;SDS011;1366;47.988;7.856;2022-12-10T16:24:10;28.70;;;19.20;;
2712;SDS011;1366;47.988;7.856;2022-12-10T16:26:36;27.73;;;19.37;;
2712;SDS011;1366;47.988;7.856;2022-12-10T16:29:03;32.83;;;19.40;;
2712;SDS011;1366;47.988;7.856;2022-12-10T16:31:29;27.40;;;17.70;;
2712;SDS011;1366;47.988;7.856;2022-12-10T16:33:55;25.60;;;18.20;;
2712;SDS011;1366;47.988;7.856;2022-12-10T16:36:21;31.83;;;20.50;;
2712;SDS011;1366;47.988;7.856;2022-12-10T16:38:47;29.23;;;19.50;;
2712;SDS011;1366;47.988;7.856;2022-12-10T16:41:17;28.23;;;20.60;;
2712;SDS011;1366;47.988;7.856;2022-12-10T16:43:44;35.07;;;21.07;;
2712;SDS011;1366;47.988;7.856;2022-12-10T16:46:10;30.50;;;21.33;;
2712;SDS011;1366;47.988;7.856;2022-12-10T16:48:37;33.40;;;20.60;;
2712;SDS011;1366;47.988;7.856;2022-12-10T16:51:03;30.23;;;20.67;;
2712;SDS011;1366;47.988;7.856;2022-12-10T16:53:29;29.07;;;23.80;;
2712;SDS011;1366;47.988;7.856;2022-12-10T16:55:59;30.93;;;23.50;;
2712;SDS011;1366;47.988;7.856;2022-12-10T16:58:25;32.60;;;23.70;;
2712;SDS011;1366;47.988;7.856;2022-12-10T17:00:51;30.50;;;21.90;;
2712;SDS011;1366;47.988;7.856;2022-12-10T17:03:19;27.27;;;19.17;;
2712;SDS011;1366;47.988;7.856;2022-12-10T17:05:52;27.60;;;18.60;;
2712;SDS011;1366;47.988;7.856;2022-12-10T17:08:19;27.00;;;19.17;;
2712;SDS011;1366;47.988;7.856;2022-12-10T17:10:46;26.80;;;18.73;;
2712;SDS011;1366;47.988;7.856;2022-12-10T17:13:31;28.77;;;18.97;;
2712;SDS011;1366;47.988;7.856;2022-12-10T17:15:58;29.07;;;20.03;;
2712;SDS011;1366;47.988;7.856;2022-12-10T17:18:24;30.37;;;18.43;;
2712;SDS011;1366;47.988;7.856;2022-12-10T17:20:50;29.27;;;20.00;;
2712;SDS011;1366;47.988;7.856;2022-12-10T17:23:17;27.33;;;20.10;;
2712;SDS011;1366;47.988;7.856;2022-12-10T17:25:43;24.43;;;18.40;;
2712;SDS011;1366;47.988;7.856;2022-12-10T17:28:11;26.80;;;18.03;;
2712;SDS011;1366;47.988;7.856;2022-12-10T17:30:38;24.73;;;18.20;;
2712;SDS011;1366;47.988;7.856;2022-12-10T17:33:04;30.53;;;20.77;;
2712;SDS011;1366;47.988;7.856;2022-12-10T17:35:30;29.43;;;18.93;;
2712;SDS011;1366;47.988;7.856;2022-12-10T17:37:56;32.20;;;20.67;;
2712;SDS011;1366;47.988;7.856;2022-12-10T17:40:22;32.20;;;22.07;;
2712;SDS011;1366;47.988;7.856;2022-12-10T17:42:49;36.00;;;22.83;;
2712;SDS011;1366;47.988;7.856;2022-12-10T17:45:16;28.53;;;20.93;;
2712;SDS011;1366;47.988;7.856;2022-12-10T17:47:43;27.63;;;20.00;;
2712;SDS011;1366;47.988;7.856;2022-12-10T17:50:17;33.97;;;21.60;;
2712;SDS011;1366;47.988;7.856;2022-12-10T17:52:47;31.00;;;22.33;;
2712;SDS011;1366;47.988;7.856;2022-12-10T17:55:13;27.73;;;20.63;;
2712;SDS011;1366;47.988;7.856;2022-12-10T17:57:39;29.43;;;21.10;;
2712;SDS011;1366;47.988;7.856;2022-12-10T18:00:09;30.23;;;22.70;;
2712;SDS011;1366;47.988;7.856;2022-12-10T18:02:37;32.47;;;22.63;;
2712;SDS011;1366;47.988;7.856;2022-12-10T18:05:03;29.20;;;21.40;;
2712;SDS011;1366;47.988;7.856;2022-12-10T18:07:30;33.77;;;22.30;;
2712;SDS011;1366;47.988;7.856;2022-12-10T18:09:56;36.40;;;24.50;;
2712;SDS011;1366;47.988;7.856;2022-12-10T18:12:22;35.30;;;25.03;;
2712;SDS011;1366;47.988;7.856;2022-12-10T18:14:48;28.90;;;21.80;;
2712;SDS011;1366;47.988;7.856;2022-12-10T18:17:14;31.33;;;21.60;;
2712;SDS011;1366;47.988;7.856;2022-12-10T18:19:42;27.50;;;19.87;;
2712;SDS011;1366;47.988;7.856;2022-12-10T18:22:08;28.07;;;19.97;;
2712;SDS011;1366;47.988;7.856;2022-12-10T18:24:34;30.60;;;19.10;;
2712;SDS011;1366;47.988;7.856;2022-12-10T18:27:00;28.87;;;20.70;;
2712;SDS011;1366;47.988;7.856;2022-12-10T18:29:26;30.80;;;19.07;;
2712;SDS011;1366;47.988;7.856;2022-12-10T18:31:52;24.50;;;19.00;;
2712;SDS011;1366;47.988;7.856;2022-12-10T18:34:19;29.87;;;21.50;;
2712;SDS011;1366;47.988;7.856;2022-12-10T18:36:45;27.47;;;18.93;;
2712;SDS011;1366;47.988;7.856;2022-12-10T18:39:18;36.23;;;24.03;;
2712;SDS011;1366;47.988;7.856;2022-12-10T18:41:44;33.73;;;23.80;;
2712;SDS011;1366;47.988;7.856;2022-12-10T18:44:11;34.40;;;23.57;;
2712;SDS011;1366;47.988;7.856;2022-12-10T18:46:37;34.40;;;23.07;;
2712;SDS011;1366;47.988;7.856;2022-12-10T18:49:04;27.30;;;21.50;;
2712;SDS011;1366;47.988;7.856;2022-12-10T18:51:30;28.40;;;20.77;;
2712;SDS011;1366;47.988;7.856;2022-12-10T18:53:56;31.10;;;22.50;;
2712;SDS011;1366;47.988;7.856;2022-12-10T18:56:24;30.20;;;20.60;;
2712;SDS011;1366;47.988;7.856;2022-12-10T18:58:51;28.27;;;19.50;;
2712;SDS011;1366;47.988;7.856;2022-12-10T19:01:18;25.37;;;19.50;;
2712;SDS011;1366;47.988;7.856;2022-12-10T19:03:46;27.97;;;19.53;;
2712;SDS011;1366;47.988;7.856;2022-12-10T19:06:12;25.90;;;18.77;;
2712;SDS011;1366;47.988;7.856;2022-12-10T19:08:39;29.70;;;21.10;;
2712;SDS011;1366;47.988;7.856;2022-12-10T19:11:05;29.60;;;19.70;;
2712;SDS011;1366;47.988;7.856;2022-12-10T19:13:31;25.80;;;18.07;;
2712;SDS011;1366;47.988;7.856;2022-12-10T19:15:57;32.00;;;21.17;;
2712;SDS011;1366;47.988;7.856;2022-12-10T19:18:25;26.87;;;20.23;;
2712;SDS011;1366;47.988;7.856;2022-12-10T19:20:51;27.33;;;19.93;;
2712;SDS011;1366;47.988;7.856;2022-12-10T19:23:17;31.47;;;21.30;;
2712;SDS011;1366;47.988;7.856;2022-12-10T19:25:43;26.90;;;20.30;;
2712;SDS011;1366;47.988;7.856;2022-12-10T19:28:10;31.60;;;21.93;;
2712;SDS011;1366;47.988;7.856;2022-12-10T19:30:37;26.30;;;19.77;;
2712;SDS011;1366;47.988;7.856;2022-12-10T19:33:03;31.17;;;20.43;;
2712;SDS011;1366;47.988;7.856;2022-12-10T19:35:29;33.63;;;22.57;;
2712;SDS011;1366;47.988;7.856;2022-12-10T19:37:55;31.17;;;20.43;;
2712;SDS011;1366;47.988;7.856;2022-12-10T19:42:47;33.83;;;22.37;;
2712;SDS011;1366;47.988;7.856;2022-12-10T19:45:14;31.17;;;20.67;;
2712;SDS011;1366;47.988;7.856;2022-12-10T19:47:40;26.87;;;21.80;;
2712;SDS011;1366;47.988;7.856;2022-12-10T19:50:10;29.40;;;20.73;;
2712;SDS011;1366;47.988;7.856;2022-12-10T19:52:37;33.67;;;20.50;;
2712;SDS011;1366;47.988;7.856;2022-12-10T19:55:04;28.87;;;19.50;;
2712;SDS011;1366;47.988;7.856;2022-12-10T19:57:30;28.57;;;21.60;;
2712;SDS011;1366;47.988;7.856;2022-12-10T19:59:56;28.20;;;20.13;;
2712;SDS011;1366;47.988;7.856;2022-12-10T20:02:22;31.10;;;20.10;;
2712;SDS011;1366;47.988;7.856;2022-12-10T20:04:48;28.60;;;19.93;;
2712;SDS011;1366;47.988;7.856;2022-12-10T20:07:14;26.13;;;19.37;;
2712;SDS011;1366;47.988;7.856;2022-12-10T20:09:40;26.17;;;19.70;;
2712;SDS011;1366;47.988;7.856;2022-12-10T20:12:06;25.97;;;18.17;;
2712;SDS011;1366;47.988;7.856;2022-12-10T20:14:32;28.33;;;19.80;;
2712;SDS011;1366;47.988;7.856;2022-12-10T20:16:58;29.30;;;20.20;;
2712;SDS011;1366;47.988;7.856;2022-12-10T20:19:24;28.83;;;20.27;;
2712;SDS011;1366;47.988;7.856;2022-12-10T20:21:51;27.43;;;20.03;;
2712;SDS011;1366;47.988;7.856;2022-12-10T20:24:17;26.50;;;20.40;;
2712;SDS011;1366;47.988;7.856;2022-12-10T20:26:44;28.13;;;19.60;;
2712;SDS011;1366;47.988;7.856;2022-12-10T20:29:21;27.17;;;19.50;;
2712;SDS011;1366;47.988;7.856;2022-12-10T20:31:47;28.27;;;19.03;;
2712;SDS011;1366;47.988;7.856;2022-12-10T20:34:14;23.60;;;18.00;;
2712;SDS011;1366;47.988;7.856;2022-12-10T20:36:40;26.40;;;18.87;;
2712;SDS011;1366;47.988;7.856;2022-12-10T20:39:17;26.63;;;18.30;;
2712;SDS011;1366;47.988;7.856;2022-12-10T20:41:44;27.30;;;19.37;;
2712;SDS011;1366;47.988;7.856;2022-12-10T20:44:10;23.47;;;17.70;;
2712;SDS011;1366;47.988;7.856;2022-12-10T20:46:36;26.10;;;18.57;;
2712;SDS011;1366;47.988;7.856;2022-12-10T20:49:03;22.90;;;15.57;;
2712;SDS011;1366;47.988;7.856;2022-12-10T20:51:29;21.03;;;15.53;;
2712;SDS011;1366;47.988;7.856;2022-12-10T20:53:55;25.80;;;18.17;;
2712;SDS011;1366;47.988;7.856;2022-12-10T20:56:22;23.40;;;16.40;;
2712;SDS011;1366;47.988;7.856;2022-12-10T20:58:49;18.70;;;14.53;;
2712;SDS011;1366;47.988;7.856;2022-12-10T21:01:16;19.63;;;15.57;;
2712;SDS011;1366;47.988;7.856;2022-12-10T21:03:42;21.43;;;14.53;;
2712;SDS011;1366;47.988;7.856;2022-12-10T21:06:09;21.00;;;14.53;;
2712;SDS011;1366;47.988;7.856;2022-12-10T21:08:36;18.53;;;14.70;;
2712;SDS011;1366;47.988;7.856;2022-12-10T21:11:03;18.80;;;14.20;;
2712;SDS011;1366;47.988;7.856;2022-12-10T21:13:29;19.17;;;14.90;;
2712;SDS011;1366;47.988;7.856;2022-12-10T21:15:56;18.30;;;14.50;;
2712;SDS011;1366;47.988;7.856;2022-12-10T21:18:23;20.27;;;14.20;;
2712;SDS011;1366;47.988;7.856;2022-12-10T21:20:49;19.20;;;14.03;;
2712;SDS011;1366;47.988;7.856;2022-12-10T21:23:16;19.10;;;14.33;;
2712;SDS011;1366;47.988;7.856;2022-12-10T21:25:43;22.67;;;14.33;;
2712;SDS011;1366;47.988;7.856;2022-12-10T21:28:09;22.23;;;14.83;;
2712;SDS011;1366;47.988;7.856;2022-12-10T21:30:35;17.80;;;13.40;;
2712;SDS011;1366;47.988;7.856;2022-12-10T21:33:01;17.63;;;13.40;;
2712;SDS011;1366;47.988;7.856;2022-12-10T21:35:27;18.83;;;14.30;;
2712;SDS011;1366;47.988;7.856;2022-12-10T21:37:55;16.43;;;12.77;;
2712;SDS011;1366;47.988;7.856;2022-12-10T21:40:21;19.87;;;14.40;;
2712;SDS011;1366;47.988;7.856;2022-12-10T21:42:47;18.67;;;13.70;;
2712;SDS011;1366;47.988;7.856;2022-12-10T21:45:32;17.00;;;13.37;;
2712;SDS011;1366;47.988;7.856;2022-12-10T21:47:59;18.40;;;12.77;;